createdAt,value
2022-07-25T00:01:47.151Z,43.96
2022-07-25T00:04:14.539Z,44.44
2022-07-25T00:06:43.103Z,44.22
2022-07-25T00:09:10.257Z,45.01
2022-07-25T00:11:37.167Z,45.37
2022-07-25T00:14:05.158Z,45.44
2022-07-25T00:16:32.444Z,45.95
2022-07-25T00:18:59.519Z,46.28
2022-07-25T00:21:26.618Z,46.65
2022-07-25T00:23:53.305Z,46.54
2022-07-25T00:26:20.115Z,46.93
2022-07-25T00:28:46.784Z,47.16
2022-07-25T00:31:13.526Z,47.45
2022-07-25T00:33:40.449Z,47.48
2022-07-25T00:36:10.632Z,47.62
2022-07-25T00:38:37.447Z,48.15
2022-07-25T00:41:04.793Z,47.92
2022-07-25T00:43:31.769Z,48.79
2022-07-25T00:45:59.531Z,48.67
2022-07-25T00:48:28.000Z,48.80
2022-07-25T00:50:56.272Z,49.45
2022-07-25T00:53:22.965Z,49.11
2022-07-25T00:55:49.694Z,49.39
2022-07-25T00:58:16.694Z,49.04
2022-07-25T01:00:43.408Z,48.89
2022-07-25T01:03:10.445Z,49.00
2022-07-25T01:05:37.428Z,49.43
2022-07-25T01:08:04.793Z,49.38
2022-07-25T01:10:32.920Z,48.96
2022-07-25T01:12:59.733Z,49.14
2022-07-25T01:15:26.850Z,49.46
2022-07-25T01:17:53.571Z,49.37
2022-07-25T01:20:21.883Z,49.19
2022-07-25T01:22:48.687Z,49.65
2022-07-25T01:25:16.273Z,49.31
2022-07-25T01:27:43.831Z,49.36
2022-07-25T01:30:12.384Z,49.30
2022-07-25T01:32:39.225Z,49.31
2022-07-25T01:35:07.099Z,48.64
2022-07-25T01:37:34.219Z,48.98
2022-07-25T01:40:01.353Z,48.85
2022-07-25T01:42:28.542Z,48.67
2022-07-25T01:44:55.939Z,48.63
2022-07-25T01:47:22.659Z,48.27
2022-07-25T01:49:49.523Z,47.91
2022-07-25T01:52:16.363Z,47.92
2022-07-25T01:54:43.497Z,48.16
2022-07-25T01:57:10.667Z,48.20
2022-07-25T01:59:40.358Z,47.85
2022-07-25T02:02:08.249Z,47.82
2022-07-25T02:04:35.780Z,48.07
2022-07-25T02:07:02.746Z,47.79
2022-07-25T02:09:29.359Z,47.98
2022-07-25T02:11:56.337Z,47.83
2022-07-25T02:14:23.550Z,47.99
2022-07-25T02:16:50.435Z,47.92
2022-07-25T02:19:17.198Z,48.12
2022-07-25T02:21:44.070Z,47.79
2022-07-25T02:24:11.003Z,47.75
2022-07-25T02:26:37.673Z,47.99
2022-07-25T02:29:04.592Z,47.52
2022-07-25T02:31:31.292Z,47.62
2022-07-25T02:33:57.901Z,47.36
2022-07-25T02:36:24.643Z,47.19
2022-07-25T02:38:51.642Z,47.23
2022-07-25T02:41:18.291Z,46.98
2022-07-25T02:43:44.902Z,47.04
2022-07-25T02:46:11.602Z,46.78
2022-07-25T02:48:38.658Z,46.45
2022-07-25T02:51:05.524Z,45.74
2022-07-25T02:53:55.474Z,46.43
2022-07-25T02:56:18.759Z,46.78
2022-07-25T02:58:48.185Z,46.79
2022-07-25T03:01:15.324Z,47.22
2022-07-25T03:03:42.159Z,46.99
2022-07-25T03:06:08.935Z,46.98
2022-07-25T03:08:36.816Z,47.04
2022-07-25T03:11:03.652Z,46.77
2022-07-25T03:13:30.409Z,46.88
2022-07-25T03:15:57.066Z,47.01
2022-07-25T03:18:23.706Z,46.88
2022-07-25T03:20:50.309Z,47.19
2022-07-25T03:23:16.987Z,47.46
2022-07-25T03:25:43.685Z,48.27
2022-07-25T03:28:10.342Z,48.75
2022-07-25T03:30:36.997Z,49.16
2022-07-25T03:33:03.757Z,49.34
2022-07-25T03:35:30.356Z,49.63
2022-07-25T03:37:57.356Z,49.70
2022-07-25T03:40:23.985Z,49.98
2022-07-25T03:42:50.552Z,50.42
2022-07-25T03:45:17.947Z,50.47
2022-07-25T03:47:44.927Z,50.98
2022-07-25T03:50:11.962Z,50.84
2022-07-25T03:52:38.716Z,50.83
2022-07-25T03:55:10.465Z,50.94
2022-07-25T03:57:38.084Z,50.74
2022-07-25T04:00:07.479Z,50.55
2022-07-25T04:02:34.851Z,50.75
2022-07-25T04:05:01.754Z,50.48
2022-07-25T04:07:28.460Z,50.79
2022-07-25T04:09:55.213Z,50.34
2022-07-25T04:12:21.870Z,50.95
2022-07-25T04:14:48.474Z,50.86
2022-07-25T04:17:15.252Z,51.13
2022-07-25T04:19:41.969Z,51.02
2022-07-25T04:22:08.759Z,50.73
2022-07-25T04:24:35.441Z,51.04
2022-07-25T04:27:02.112Z,50.62
2022-07-25T04:29:29.684Z,50.11
2022-07-25T04:31:56.312Z,49.37
2022-07-25T04:34:23.078Z,49.33
2022-07-25T04:36:49.930Z,49.42
2022-07-25T04:39:16.488Z,48.55
2022-07-25T04:41:43.283Z,48.58
2022-07-25T04:44:09.984Z,48.54
2022-07-25T04:46:36.833Z,48.39
2022-07-25T04:49:03.517Z,48.33
2022-07-25T04:51:30.205Z,48.25
2022-07-25T04:53:56.804Z,48.17
2022-07-25T04:56:23.434Z,47.93
2022-07-25T04:58:50.053Z,47.84
2022-07-25T05:01:16.792Z,47.54
2022-07-25T05:03:49.893Z,47.24
2022-07-25T05:06:17.348Z,47.08
2022-07-25T05:08:44.032Z,47.35
2022-07-25T05:11:10.682Z,47.42
2022-07-25T05:13:37.286Z,47.68
2022-07-25T05:16:04.148Z,47.33
2022-07-25T05:18:31.059Z,47.08
2022-07-25T05:20:58.987Z,46.80
2022-07-25T05:23:25.656Z,47.00
2022-07-25T05:25:52.486Z,46.68
2022-07-25T05:28:19.180Z,46.89
2022-07-25T05:30:45.942Z,46.48
2022-07-25T05:33:12.659Z,46.47
2022-07-25T05:35:39.432Z,45.46
2022-07-25T05:38:06.075Z,46.79
2022-07-25T05:40:32.677Z,46.72
2022-07-25T05:43:03.013Z,45.65
2022-07-25T05:45:31.271Z,45.57
2022-07-25T05:47:57.903Z,46.17
2022-07-25T05:50:24.655Z,45.36
2022-07-25T05:52:51.313Z,45.05
2022-07-25T05:55:18.380Z,45.47
2022-07-25T05:57:45.278Z,44.99
2022-07-25T06:00:12.724Z,44.44
2022-07-25T06:02:39.601Z,45.01
2022-07-25T06:05:06.527Z,44.98
2022-07-25T06:07:33.210Z,45.07
2022-07-25T06:09:59.848Z,44.69
2022-07-25T06:12:26.568Z,44.65
2022-07-25T06:14:53.547Z,44.74
2022-07-25T06:17:20.934Z,44.87
2022-07-25T06:19:47.678Z,44.69
2022-07-25T06:22:14.400Z,44.45
2022-07-25T06:24:41.528Z,44.74
2022-07-25T06:27:08.923Z,44.92
2022-07-25T06:29:35.824Z,44.76
2022-07-25T06:32:02.939Z,45.05
2022-07-25T06:34:33.322Z,45.13
2022-07-25T06:36:59.958Z,44.66
2022-07-25T06:39:28.143Z,44.37
2022-07-25T06:41:55.016Z,44.51
2022-07-25T06:44:21.712Z,44.51
2022-07-25T06:46:48.427Z,43.93
2022-07-25T06:49:16.904Z,43.69
2022-07-25T06:51:44.035Z,44.57
2022-07-25T06:54:10.654Z,44.44
2022-07-25T06:56:37.272Z,44.62
2022-07-25T06:59:03.967Z,43.96
2022-07-25T07:01:30.817Z,44.48
2022-07-25T07:03:57.420Z,44.63
2022-07-25T07:06:24.157Z,44.52
2022-07-25T07:08:51.697Z,44.19
2022-07-25T07:11:18.397Z,43.99
2022-07-25T07:13:45.075Z,44.60
2022-07-25T07:16:11.835Z,44.42
2022-07-25T07:18:39.220Z,44.34
2022-07-25T07:21:06.814Z,43.99
2022-07-25T07:23:34.777Z,44.11
2022-07-25T07:26:03.537Z,43.72
2022-07-25T07:28:30.389Z,44.37
2022-07-25T07:33:43.827Z,43.65
2022-07-25T07:36:10.777Z,43.88
2022-07-25T07:38:37.376Z,44.03
2022-07-25T07:41:04.012Z,44.38
2022-07-25T07:43:32.020Z,44.33
2022-07-25T07:46:01.417Z,44.32
2022-07-25T07:48:31.610Z,44.34
2022-07-25T07:51:01.152Z,43.97
2022-07-25T07:53:46.904Z,44.07
2022-07-25T07:56:14.635Z,43.91
2022-07-25T07:58:41.282Z,43.86
2022-07-25T08:01:08.015Z,42.97
2022-07-25T08:03:34.682Z,43.45
2022-07-25T08:06:01.432Z,43.50
2022-07-25T08:08:31.400Z,43.64
2022-07-25T08:10:59.543Z,43.33
2022-07-25T08:13:30.561Z,43.28
2022-07-25T08:15:58.502Z,44.04
2022-07-25T08:18:26.883Z,43.46
2022-07-25T08:20:53.659Z,43.05
2022-07-25T08:23:20.675Z,42.86
2022-07-25T08:25:47.439Z,43.62
2022-07-25T08:28:14.863Z,43.17
2022-07-25T08:30:42.135Z,43.31
2022-07-25T08:33:12.535Z,43.18
2022-07-25T08:35:41.085Z,42.57
2022-07-25T08:38:07.917Z,42.43
2022-07-25T08:40:35.268Z,42.37
2022-07-25T08:43:01.913Z,41.98
2022-07-25T08:45:28.841Z,41.55
2022-07-25T08:47:56.611Z,41.64
2022-07-25T08:50:27.215Z,41.18
2022-07-25T08:53:04.911Z,41.02
2022-07-25T08:55:43.618Z,41.04
2022-07-25T08:58:11.413Z,41.16
2022-07-25T09:00:38.944Z,41.44
2022-07-25T09:03:08.499Z,41.25
2022-07-25T09:05:36.828Z,40.78
2022-07-25T09:08:08.398Z,40.92
2022-07-25T09:10:36.081Z,40.07
2022-07-25T09:13:10.967Z,40.27
2022-07-25T09:15:40.458Z,40.30
2022-07-25T09:18:16.881Z,39.69
2022-07-25T09:20:48.117Z,40.19
2022-07-25T09:23:27.298Z,39.91
2022-07-25T09:26:10.928Z,40.11
2022-07-25T09:28:45.953Z,39.63
2022-07-25T09:31:14.439Z,40.31
2022-07-25T09:33:57.055Z,39.00
2022-07-25T09:36:24.152Z,38.95
2022-07-25T09:39:01.143Z,38.87
2022-07-25T09:41:35.161Z,38.43
2022-07-25T09:44:02.121Z,38.60
2022-07-25T09:46:32.979Z,38.92
2022-07-25T09:49:00.780Z,38.95
2022-07-25T09:51:29.106Z,38.56
2022-07-25T09:53:55.920Z,38.44
2022-07-25T09:56:22.680Z,38.02
2022-07-25T09:58:49.256Z,37.06
2022-07-25T10:01:22.946Z,36.64
2022-07-25T10:04:15.080Z,37.11
2022-07-25T10:06:52.621Z,36.48
2022-07-25T10:09:19.323Z,35.40
2022-07-25T10:12:06.868Z,33.76
2022-07-25T10:14:34.722Z,34.54
2022-07-25T10:17:02.128Z,33.68
2022-07-25T10:19:52.895Z,33.31
2022-07-25T10:22:39.734Z,34.70
2022-07-25T10:25:19.329Z,33.37
2022-07-25T10:27:52.941Z,33.48
2022-07-25T10:30:24.919Z,33.09
2022-07-25T10:33:02.343Z,32.40
2022-07-25T10:35:29.502Z,32.21
2022-07-25T10:37:58.288Z,31.96
2022-07-25T10:40:27.930Z,30.96
2022-07-25T10:43:22.123Z,30.99
2022-07-25T10:45:50.945Z,31.35
2022-07-25T10:48:32.763Z,30.96
2022-07-25T10:51:25.343Z,29.97
2022-07-25T10:53:52.161Z,29.70
2022-07-25T10:56:22.924Z,29.60
2022-07-25T10:58:51.525Z,29.91
2022-07-25T11:01:26.678Z,28.24
2022-07-25T11:03:56.513Z,28.59
2022-07-25T11:06:40.476Z,28.52
2022-07-25T11:09:18.500Z,27.68
2022-07-25T11:11:50.049Z,28.48
2022-07-25T11:14:22.427Z,28.43
2022-07-25T11:16:51.876Z,28.03
2022-07-25T11:19:22.950Z,27.69
2022-07-25T11:22:00.508Z,27.89
2022-07-25T11:24:43.075Z,27.56
2022-07-25T11:27:20.493Z,27.18
2022-07-25T11:29:47.073Z,26.84
2022-07-25T11:32:14.119Z,26.87
2022-07-25T11:34:53.333Z,26.77
2022-07-25T11:37:21.093Z,26.92
2022-07-25T11:39:48.293Z,26.90
2022-07-25T11:42:19.532Z,25.96
2022-07-25T11:44:52.880Z,25.81
2022-07-25T11:47:24.315Z,26.46
2022-07-25T11:49:52.445Z,25.80
2022-07-25T11:52:33.984Z,26.17
2022-07-25T11:55:02.674Z,25.95
2022-07-25T11:57:32.250Z,26.12
2022-07-25T12:00:00.463Z,25.44
2022-07-25T12:02:37.264Z,24.96
2022-07-25T12:05:10.296Z,25.18
2022-07-25T12:07:45.071Z,24.70
2022-07-25T12:10:23.384Z,24.53
2022-07-25T12:12:56.005Z,24.27
2022-07-25T12:15:28.945Z,23.89
2022-07-25T12:17:57.304Z,24.34
2022-07-25T12:20:26.643Z,24.18
2022-07-25T12:22:55.877Z,24.24
2022-07-25T12:25:28.908Z,23.84
2022-07-25T12:27:58.907Z,23.74
2022-07-25T12:30:27.494Z,23.80
2022-07-25T12:32:55.105Z,23.53
2022-07-25T12:35:24.815Z,23.90
2022-07-25T12:37:52.119Z,23.45
2022-07-25T12:40:19.933Z,23.24
2022-07-25T12:42:48.837Z,23.46
2022-07-25T12:45:17.849Z,23.03
2022-07-25T12:47:46.440Z,23.27
2022-07-25T12:50:13.832Z,23.06
2022-07-25T12:52:41.642Z,22.71
2022-07-25T12:55:10.440Z,22.29
2022-07-25T12:57:37.353Z,22.39
2022-07-25T13:00:05.871Z,22.31
2022-07-25T13:02:32.710Z,22.22
2022-07-25T13:04:59.761Z,21.95
2022-07-25T13:07:26.743Z,21.88
2022-07-25T13:09:53.295Z,21.28
2022-07-25T13:12:20.745Z,21.29
2022-07-25T13:14:47.891Z,21.50
2022-07-25T13:17:14.494Z,21.87
2022-07-25T13:19:41.100Z,21.78
2022-07-25T13:22:07.827Z,21.92
2022-07-25T13:24:34.667Z,21.53
2022-07-25T13:27:07.815Z,20.79
2022-07-25T13:29:34.551Z,21.94
2022-07-25T13:32:01.608Z,21.72
2022-07-25T13:34:28.577Z,21.31
2022-07-25T13:36:55.168Z,21.55
2022-07-25T13:39:22.536Z,21.35
2022-07-25T13:41:49.738Z,22.36
2022-07-25T13:44:16.822Z,22.51
2022-07-25T13:46:46.211Z,23.54
2022-07-25T13:49:13.253Z,23.32
2022-07-25T13:51:39.935Z,23.53
2022-07-25T13:54:07.174Z,23.79
2022-07-25T13:56:34.308Z,24.17
2022-07-25T13:59:03.541Z,24.21
2022-07-25T14:01:30.569Z,25.23
2022-07-25T14:03:57.290Z,24.80
2022-07-25T14:06:23.958Z,24.94
2022-07-25T14:08:50.582Z,24.87
2022-07-25T14:11:17.331Z,24.69
2022-07-25T14:13:45.318Z,25.19
2022-07-25T14:16:14.515Z,25.33
2022-07-25T14:18:41.160Z,25.12
2022-07-25T14:21:07.818Z,25.26
2022-07-25T14:23:34.586Z,25.36
2022-07-25T14:26:01.180Z,25.66
2022-07-25T14:28:27.905Z,26.36
2022-07-25T14:30:54.695Z,25.73
2022-07-25T14:33:21.434Z,26.49
2022-07-25T14:35:48.129Z,26.11
2022-07-25T14:38:14.829Z,26.52
2022-07-25T14:40:42.574Z,26.29
2022-07-25T14:43:09.163Z,26.68
2022-07-25T14:45:37.134Z,26.62
2022-07-25T14:48:06.972Z,26.60
2022-07-25T14:50:33.912Z,26.46
2022-07-25T14:53:00.588Z,26.99
2022-07-25T14:55:27.269Z,26.88
2022-07-25T14:57:53.911Z,26.68
2022-07-25T15:00:22.059Z,26.93
2022-07-25T15:02:51.608Z,27.51
2022-07-25T15:05:18.373Z,26.89
2022-07-25T15:07:45.111Z,26.78
2022-07-25T15:10:11.960Z,27.23
2022-07-25T15:12:38.772Z,27.35
2022-07-25T15:15:06.341Z,26.93
2022-07-25T15:17:33.747Z,26.57
2022-07-25T15:20:00.723Z,26.69
2022-07-25T15:22:27.318Z,26.80
2022-07-25T15:27:40.679Z,26.47
2022-07-25T15:30:07.791Z,26.80
2022-07-25T15:32:34.722Z,26.92
2022-07-25T15:35:01.470Z,26.28
2022-07-25T15:37:28.980Z,26.72
2022-07-25T15:39:56.008Z,26.90
2022-07-25T15:42:27.051Z,27.02
2022-07-25T15:45:15.254Z,26.53
2022-07-25T15:47:45.073Z,27.06
2022-07-25T15:50:14.464Z,27.92
2022-07-25T15:52:41.222Z,27.40
2022-07-25T15:55:08.052Z,26.82
2022-07-25T15:57:34.852Z,27.29
2022-07-25T16:00:01.422Z,27.57
2022-07-25T16:02:28.118Z,27.76
2022-07-25T16:04:54.658Z,27.75
2022-07-25T16:07:21.336Z,27.99
2022-07-25T16:09:48.079Z,27.85
2022-07-25T16:12:14.868Z,27.46
2022-07-25T16:14:41.622Z,26.88
2022-07-25T16:17:08.408Z,26.18
2022-07-25T16:19:35.127Z,25.99
2022-07-25T16:22:02.179Z,25.62
2022-07-25T16:24:28.748Z,25.27
2022-07-25T16:26:55.355Z,24.18
2022-07-25T16:29:22.212Z,25.07
2022-07-25T16:31:49.262Z,24.70
2022-07-25T16:34:15.911Z,25.50
2022-07-25T16:36:42.544Z,25.71
2022-07-25T16:39:13.375Z,26.33
2022-07-25T16:41:39.962Z,26.13
2022-07-25T16:44:07.064Z,26.64
2022-07-25T16:46:33.694Z,26.90
2022-07-25T16:49:00.397Z,26.61
2022-07-25T16:51:27.108Z,27.03
2022-07-25T16:53:53.954Z,27.45
2022-07-25T16:56:20.799Z,27.33
2022-07-25T16:58:47.614Z,27.40
2022-07-25T17:03:41.960Z,27.74
2022-07-25T17:06:09.471Z,27.66
2022-07-25T17:08:37.785Z,27.87
2022-07-25T17:11:05.457Z,27.85
2022-07-25T17:13:32.192Z,28.32
2022-07-25T17:15:58.911Z,28.74
2022-07-25T17:18:25.756Z,29.44
2022-07-25T17:20:54.537Z,30.25
2022-07-25T17:23:21.805Z,30.31
2022-07-25T17:25:50.658Z,31.12
2022-07-25T17:28:17.962Z,31.45
2022-07-25T17:30:45.688Z,31.81
2022-07-25T17:33:12.272Z,32.35
2022-07-25T17:35:42.311Z,32.52
2022-07-25T17:38:12.074Z,32.43
2022-07-25T17:40:45.164Z,33.30
2022-07-25T17:43:11.773Z,33.45
2022-07-25T17:45:38.619Z,33.17
2022-07-25T17:48:05.414Z,33.65
2022-07-25T17:50:32.253Z,34.02
2022-07-25T17:52:59.972Z,33.47
2022-07-25T17:55:28.137Z,33.60
2022-07-25T17:57:55.754Z,33.74
2022-07-25T18:00:23.352Z,32.90
2022-07-25T18:02:50.993Z,33.26
2022-07-25T18:05:18.128Z,32.97
2022-07-25T18:07:46.317Z,32.87
2022-07-25T18:10:20.206Z,32.93
2022-07-25T18:12:47.914Z,33.02
2022-07-25T18:15:14.997Z,33.50
2022-07-25T18:17:43.109Z,33.54
2022-07-25T18:20:10.576Z,34.00
2022-07-25T18:22:38.344Z,34.31
2022-07-25T18:25:06.515Z,34.33
2022-07-25T18:27:33.647Z,34.79
2022-07-25T18:30:00.403Z,34.86
2022-07-25T18:32:27.020Z,34.90
2022-07-25T18:34:53.836Z,34.90
2022-07-25T18:37:20.681Z,35.20
2022-07-25T18:39:47.421Z,35.32
2022-07-25T18:42:14.094Z,35.41
2022-07-25T18:44:40.631Z,35.38
2022-07-25T18:47:07.666Z,35.49
2022-07-25T18:49:34.315Z,35.89
2022-07-25T18:52:00.915Z,35.53
2022-07-25T18:54:27.909Z,36.09
2022-07-25T18:56:54.541Z,36.18
2022-07-25T18:59:21.261Z,36.38
2022-07-25T19:01:47.994Z,36.23
2022-07-25T19:04:15.353Z,36.59
2022-07-25T19:06:42.066Z,36.42
2022-07-25T19:09:09.070Z,37.00
2022-07-25T19:11:41.687Z,37.04
2022-07-25T19:14:09.372Z,37.62
2022-07-25T19:16:36.486Z,37.89
2022-07-25T19:19:03.563Z,38.00
2022-07-25T19:21:30.201Z,37.97
2022-07-25T19:23:56.896Z,38.19
2022-07-25T19:26:23.789Z,38.12
2022-07-25T19:28:51.146Z,38.72
2022-07-25T19:31:17.888Z,38.48
2022-07-25T19:33:45.992Z,38.53
2022-07-25T19:36:13.829Z,38.75
2022-07-25T19:38:40.413Z,38.97
2022-07-25T19:41:08.272Z,39.16
2022-07-25T19:43:35.593Z,38.60
2022-07-25T19:46:02.281Z,38.60
2022-07-25T19:48:28.973Z,38.85
2022-07-25T19:50:56.326Z,38.65
2022-07-25T19:53:28.091Z,38.88
2022-07-25T19:55:55.282Z,39.04
2022-07-25T19:58:21.887Z,38.69
2022-07-25T20:00:48.496Z,38.37
2022-07-25T20:03:15.685Z,37.62
2022-07-25T20:05:42.524Z,36.82
2022-07-25T20:08:09.127Z,36.38
2022-07-25T20:10:35.733Z,36.82
2022-07-25T20:13:02.399Z,36.75
2022-07-25T20:15:29.633Z,36.51
2022-07-25T20:17:56.978Z,36.75
2022-07-25T20:20:24.492Z,36.49
2022-07-25T20:22:51.540Z,36.83
2022-07-25T20:25:18.151Z,36.74
2022-07-25T20:27:45.038Z,36.69
2022-07-25T20:30:12.401Z,36.87
2022-07-25T20:32:39.083Z,37.11
2022-07-25T20:35:06.205Z,37.01
2022-07-25T20:37:32.961Z,37.18
2022-07-25T20:40:00.104Z,37.22
2022-07-25T20:42:27.379Z,37.31
2022-07-25T20:44:54.084Z,37.63
2022-07-25T20:47:20.843Z,37.75
2022-07-25T20:49:47.562Z,38.00
2022-07-25T20:52:14.170Z,37.33
2022-07-25T20:54:42.873Z,37.44
2022-07-25T20:57:11.552Z,37.86
2022-07-25T20:59:38.240Z,37.71
2022-07-25T21:02:04.932Z,38.17
2022-07-25T21:04:31.772Z,38.12
2022-07-25T21:06:58.434Z,38.00
2022-07-25T21:09:27.428Z,38.71
2022-07-25T21:11:57.723Z,38.18
2022-07-25T21:14:24.304Z,38.29
2022-07-25T21:16:50.989Z,38.43
2022-07-25T21:19:17.631Z,38.46
2022-07-25T21:21:44.807Z,38.76
2022-07-25T21:24:12.398Z,38.92
2022-07-25T21:26:39.506Z,39.62
2022-07-25T21:29:07.374Z,39.82
2022-07-25T21:31:34.683Z,39.57
2022-07-25T21:34:02.109Z,39.85
2022-07-25T21:36:30.137Z,40.06
2022-07-25T21:38:56.809Z,39.81
2022-07-25T21:41:23.553Z,39.69
2022-07-25T21:43:50.892Z,40.86
2022-07-25T21:46:17.649Z,40.80
2022-07-25T21:49:02.821Z,40.96
2022-07-25T21:51:40.208Z,41.98
2022-07-25T21:54:07.305Z,42.09
2022-07-25T21:56:33.926Z,42.51
2022-07-25T21:59:00.535Z,43.02
2022-07-25T22:01:27.122Z,43.22
2022-07-25T22:03:53.825Z,43.41
2022-07-25T22:06:20.780Z,43.99
2022-07-25T22:08:47.393Z,44.22
2022-07-25T22:11:16.086Z,43.96
2022-07-25T22:14:01.893Z,44.61
2022-07-25T22:16:28.572Z,44.26
2022-07-25T22:18:57.206Z,44.55
2022-07-25T22:21:23.987Z,44.37
2022-07-25T22:23:50.631Z,45.06
2022-07-25T22:26:17.352Z,44.89
2022-07-25T22:28:43.924Z,44.71
2022-07-25T22:31:10.606Z,45.05
2022-07-25T22:33:38.314Z,45.10
2022-07-25T22:36:05.739Z,45.27
2022-07-25T22:38:32.463Z,44.98
2022-07-25T22:40:59.016Z,44.95
2022-07-25T22:43:25.571Z,45.48
2022-07-25T22:46:12.684Z,45.53
2022-07-25T22:48:42.154Z,44.82
2022-07-25T22:51:08.743Z,44.77
2022-07-25T22:53:35.426Z,44.97
2022-07-25T22:56:02.076Z,45.17
2022-07-25T22:58:28.746Z,44.13
2022-07-25T23:00:55.491Z,44.30
2022-07-25T23:03:22.571Z,44.30
2022-07-25T23:05:49.357Z,44.97
2022-07-25T23:08:20.508Z,44.69
2022-07-25T23:10:47.243Z,44.74
2022-07-25T23:13:13.833Z,44.43
2022-07-25T23:15:51.041Z,44.66
2022-07-25T23:18:18.741Z,44.09
2022-07-25T23:20:45.394Z,44.30
2022-07-25T23:23:12.591Z,43.95
2022-07-25T23:25:39.246Z,44.17
2022-07-25T23:28:06.010Z,44.17
2022-07-25T23:30:38.043Z,44.03
2022-07-25T23:33:06.497Z,43.86
2022-07-25T23:35:33.148Z,43.48
2022-07-25T23:37:59.817Z,43.38
2022-07-25T23:40:26.974Z,43.15
2022-07-25T23:42:54.500Z,43.33
2022-07-25T23:45:22.012Z,43.36
2022-07-25T23:47:52.118Z,42.99
2022-07-25T23:50:19.850Z,43.51
2022-07-25T23:52:46.785Z,43.34
2022-07-25T23:55:13.482Z,43.19
2022-07-25T23:57:40.082Z,43.02
